Accueil
METAR-TAF:

METAR-TAF

Aéroports :

Aéroport international de Curaçao

Curaçao, Antilles néerlandaises

latitude: 12-12N, longitude: 068-58W, altitude: 9 m

Observation

Le bulletin a été fait il y a 21 minutes, à 05:00 UTC
Vent 9 kt de est
Température 28°C
Humidité 79%
Pression 1014 hPa
Visibilité 10 km ou plus
Quelques nuages à une hauteur de 1700 ft

METAR: TNCC 150500Z 10009KT 9999 FEW017 28/24 Q1014 NOSIG

Heure: 01:21 (05:21 UTC)

Prévision

Le bulletin a été fait il y a 6 heures et 20 minutes, à 23:01 UTC
Prévision valable du 15 à 00 UTC au 15 à 24 UTC
Vent 10 kt de est
Visibilité 10 km ou plus
Nuages épars à une hauteur de 1600 ft

TAF: TNCC 142301Z 1500/1524 09010KT 9999 SCT016

Observations et prévisions météorologiques de plus de 4000 aéroports (messages METAR et TAF).

Les stations disponibles sont représentées par des disques jaunes et rouges sur la carte.

Passer la souris dessus pour voir le nom de la station.

Cliquer dessus pour voir les observations et prévisions météorologiques.

Pour changer de carte: cliquez sur les boutons verts avec une croix noire pour zoomer, sur le bouton vert avec un tiret pour effectuer un zoom arrière, ou sur les flèches vertes pour les cartes adjacentes.


METAR-TAF: